createdAt,value
2018-11-05T00:00:29.616Z,10.67
2018-11-05T00:02:58.103Z,11.33
2018-11-05T00:05:26.535Z,10.97
2018-11-05T00:07:54.995Z,11.37
2018-11-05T00:10:23.402Z,12.63
2018-11-05T00:12:51.842Z,10.80
2018-11-05T00:15:20.263Z,11.17
2018-11-05T00:17:48.720Z,12.67
2018-11-05T00:20:17.159Z,11.03
2018-11-05T00:22:45.633Z,12.20
2018-11-05T00:25:14.424Z,13.20
2018-11-05T00:27:43.250Z,13.67
2018-11-05T00:30:13.035Z,11.83
2018-11-05T00:32:41.902Z,10.80
2018-11-05T00:35:10.411Z,10.57
2018-11-05T00:37:38.930Z,12.30
2018-11-05T00:40:09.631Z,12.27
2018-11-05T00:42:38.085Z,10.07
2018-11-05T00:45:07.689Z,12.97
2018-11-05T00:47:36.139Z,10.77
2018-11-05T00:50:06.598Z,9.90
2018-11-05T00:52:35.081Z,11.93
2018-11-05T00:55:03.594Z,10.43
2018-11-05T00:57:32.124Z,11.87
2018-11-05T01:00:00.951Z,11.20
2018-11-05T01:02:29.443Z,10.97
2018-11-05T01:04:57.919Z,9.80
2018-11-05T01:07:26.715Z,10.50
2018-11-05T01:09:55.176Z,10.57
2018-11-05T01:12:23.625Z,11.60
2018-11-05T01:14:52.347Z,11.13
2018-11-05T01:17:20.755Z,9.63
2018-11-05T01:19:49.221Z,10.50
2018-11-05T01:22:17.711Z,10.67
2018-11-05T01:24:46.178Z,9.00
2018-11-05T01:27:14.579Z,11.40
2018-11-05T01:29:42.978Z,10.37
2018-11-05T01:32:11.423Z,10.40
2018-11-05T01:34:39.832Z,9.93
2018-11-05T01:37:08.342Z,11.03
2018-11-05T01:39:36.694Z,9.87
2018-11-05T01:42:05.331Z,12.37
2018-11-05T01:44:33.742Z,11.03
2018-11-05T01:47:02.178Z,10.60
2018-11-05T01:49:30.591Z,10.37
2018-11-05T01:51:59.062Z,10.63
2018-11-05T01:54:27.585Z,10.73
2018-11-05T01:56:56.153Z,9.87
2018-11-05T01:59:24.567Z,10.07
2018-11-05T02:01:53.050Z,10.57
2018-11-05T02:04:21.488Z,9.70
2018-11-05T02:06:49.942Z,9.17
2018-11-05T02:09:18.364Z,9.50
2018-11-05T02:11:46.862Z,9.60
2018-11-05T02:14:15.277Z,10.90
2018-11-05T02:16:43.715Z,8.97
2018-11-05T02:19:12.206Z,10.17
2018-11-05T02:21:40.626Z,8.17
2018-11-05T02:24:09.164Z,10.00
2018-11-05T02:26:37.971Z,9.23
2018-11-05T02:29:06.524Z,9.63
2018-11-05T02:31:35.699Z,11.53
2018-11-05T02:34:04.148Z,11.90
2018-11-05T02:36:32.615Z,8.83
2018-11-05T02:39:01.706Z,8.77
2018-11-05T02:41:30.117Z,8.43
2018-11-05T02:43:58.547Z,9.63
2018-11-05T02:46:26.956Z,9.37
2018-11-05T02:48:55.391Z,9.73
2018-11-05T02:51:23.798Z,9.93
2018-11-05T02:53:52.235Z,9.40
2018-11-05T02:56:20.663Z,9.63
2018-11-05T02:58:49.103Z,8.40
2018-11-05T03:01:17.511Z,9.50
2018-11-05T03:03:45.935Z,9.23
2018-11-05T03:06:14.346Z,9.20
2018-11-05T03:08:42.779Z,8.87
2018-11-05T03:11:11.227Z,8.23
2018-11-05T03:13:39.658Z,8.37
2018-11-05T03:16:08.763Z,7.40
2018-11-05T03:18:37.183Z,7.80
2018-11-05T03:21:05.678Z,7.60
2018-11-05T03:23:34.679Z,7.70
2018-11-05T03:26:03.117Z,7.77
2018-11-05T03:28:31.515Z,7.93
2018-11-05T03:30:59.955Z,7.50
2018-11-05T03:33:28.366Z,6.57
2018-11-05T03:35:56.839Z,7.00
2018-11-05T03:38:25.226Z,7.23
2018-11-05T03:40:53.690Z,6.83
2018-11-05T03:43:22.103Z,6.73
2018-11-05T03:45:50.547Z,9.27
2018-11-05T03:48:18.965Z,7.63
2018-11-05T03:50:47.416Z,7.20
2018-11-05T03:53:15.827Z,6.87
2018-11-05T03:55:44.401Z,7.83
2018-11-05T03:58:12.743Z,6.60
2018-11-05T04:00:41.198Z,7.27
2018-11-05T04:03:09.652Z,7.80
2018-11-05T04:05:38.018Z,6.87
2018-11-05T04:08:06.593Z,7.20
2018-11-05T04:10:34.988Z,6.83
2018-11-05T04:13:03.412Z,6.93
2018-11-05T04:15:31.952Z,6.67
2018-11-05T04:18:00.332Z,5.90
2018-11-05T04:20:28.731Z,5.97
2018-11-05T04:22:57.171Z,6.27
2018-11-05T04:25:25.578Z,6.50
2018-11-05T04:27:54.060Z,5.30
2018-11-05T04:30:22.449Z,5.83
2018-11-05T04:32:50.879Z,5.77
2018-11-05T04:35:19.280Z,5.73
2018-11-05T04:37:47.736Z,5.80
2018-11-05T04:40:16.139Z,5.73
2018-11-05T04:42:44.577Z,5.60
2018-11-05T04:45:13.790Z,5.20
2018-11-05T04:47:42.823Z,5.33
2018-11-05T04:50:12.489Z,4.80
2018-11-05T04:52:41.690Z,5.43
2018-11-05T04:55:10.160Z,6.13
2018-11-05T04:57:38.718Z,6.03
2018-11-05T05:00:12.641Z,5.33
2018-11-05T05:02:41.853Z,6.27
2018-11-05T05:05:11.404Z,5.97
2018-11-05T05:07:39.795Z,6.73
2018-11-05T05:10:08.977Z,5.33
2018-11-05T05:12:38.266Z,5.90
2018-11-05T05:15:06.993Z,5.30
2018-11-05T05:17:35.418Z,5.30
2018-11-05T05:20:04.006Z,5.00
2018-11-05T05:22:32.424Z,4.77
2018-11-05T05:25:00.839Z,5.17
2018-11-05T05:27:29.227Z,4.40
2018-11-05T05:29:57.637Z,4.17
2018-11-05T05:32:26.010Z,4.37
2018-11-05T05:34:54.426Z,4.57
2018-11-05T05:37:22.826Z,5.23
2018-11-05T05:39:51.254Z,4.03
2018-11-05T05:42:19.675Z,4.40
2018-11-05T05:44:48.098Z,4.23
2018-11-05T05:47:16.495Z,4.27
2018-11-05T05:49:44.934Z,4.57
2018-11-05T05:52:13.321Z,4.73
2018-11-05T05:54:41.738Z,3.90
2018-11-05T05:57:10.158Z,4.17
2018-11-05T05:59:38.553Z,4.57
2018-11-05T06:02:07.420Z,4.10
2018-11-05T06:04:35.854Z,4.53
2018-11-05T06:07:04.384Z,4.20
2018-11-05T06:09:32.747Z,3.87
2018-11-05T06:12:01.169Z,4.33
2018-11-05T06:14:29.546Z,5.40
2018-11-05T06:16:57.972Z,5.10
2018-11-05T06:19:26.354Z,5.27
2018-11-05T06:21:54.828Z,5.00
2018-11-05T06:24:23.194Z,6.90
2018-11-05T06:26:51.639Z,6.03
2018-11-05T06:29:20.031Z,5.17
2018-11-05T06:31:48.458Z,5.90
2018-11-05T06:34:16.838Z,5.57
2018-11-05T06:36:45.255Z,4.27
2018-11-05T06:39:14.047Z,4.17
2018-11-05T06:41:42.880Z,4.33
2018-11-05T06:44:11.334Z,5.33
2018-11-05T06:46:39.722Z,5.57
2018-11-05T06:49:08.230Z,5.60
2018-11-05T06:51:36.623Z,4.40
2018-11-05T06:54:05.674Z,4.90
2018-11-05T06:56:34.534Z,5.57
2018-11-05T06:59:02.958Z,4.63
2018-11-05T07:01:32.112Z,4.50
2018-11-05T07:04:00.546Z,5.17
2018-11-05T07:06:29.046Z,4.73
2018-11-05T07:08:57.466Z,5.50
2018-11-05T07:11:25.934Z,5.80
2018-11-05T07:13:54.454Z,7.53
2018-11-05T07:16:22.860Z,6.40
2018-11-05T07:18:51.483Z,7.47
2018-11-05T07:21:19.762Z,8.07
2018-11-05T07:23:48.229Z,7.50
2018-11-05T07:26:16.634Z,15.37
2018-11-05T07:28:45.137Z,8.47
2018-11-05T07:31:13.578Z,11.37
2018-11-05T07:33:42.280Z,10.50
2018-11-05T07:36:10.715Z,13.47
2018-11-05T07:38:39.170Z,7.83
2018-11-05T07:41:07.679Z,8.07
2018-11-05T07:43:36.129Z,7.77
2018-11-05T07:46:04.598Z,9.37
2018-11-05T07:48:32.989Z,9.03
2018-11-05T07:51:01.426Z,10.63
2018-11-05T07:53:29.839Z,12.83
2018-11-05T07:55:58.674Z,13.47
2018-11-05T07:58:27.087Z,18.00
2018-11-05T08:00:58.666Z,12.60
2018-11-05T08:03:27.519Z,12.67
2018-11-05T08:05:56.539Z,14.83
2018-11-05T08:08:25.024Z,13.07
2018-11-05T08:10:53.435Z,23.97
2018-11-05T08:13:21.987Z,18.73
2018-11-05T08:15:50.471Z,18.43
2018-11-05T08:18:18.940Z,12.93
2018-11-05T08:20:47.407Z,14.53
2018-11-05T08:23:15.871Z,10.40
2018-11-05T08:25:44.412Z,13.53
2018-11-05T08:28:12.834Z,12.03
2018-11-05T08:30:41.298Z,12.43
2018-11-05T08:33:09.884Z,13.97
2018-11-05T08:35:38.354Z,12.70
2018-11-05T08:38:06.886Z,13.83
2018-11-05T08:40:54.427Z,10.77
2018-11-05T08:43:56.104Z,14.57
2018-11-05T08:58:51.056Z,13.70
2018-11-05T09:01:40.625Z,11.67
2018-11-05T09:04:27.708Z,12.10
2018-11-05T09:06:56.365Z,11.90
2018-11-05T09:09:28.024Z,10.57
2018-11-05T09:12:01.362Z,13.40
2018-11-05T09:17:53.835Z,11.47
2018-11-05T09:44:43.597Z,13.93
2018-11-05T09:47:12.028Z,15.33
2018-11-05T09:49:43.577Z,10.43
2018-11-05T09:52:11.926Z,8.70
2018-11-05T09:54:40.406Z,9.37
2018-11-05T09:57:08.972Z,12.20
2018-11-05T09:59:37.658Z,9.90
2018-11-05T10:02:06.199Z,8.93
2018-11-05T10:04:34.783Z,8.60
2018-11-05T10:07:03.178Z,8.93
2018-11-05T10:09:32.393Z,8.53
2018-11-05T10:12:00.882Z,8.00
2018-11-05T10:14:29.330Z,9.43
2018-11-05T10:16:57.766Z,14.90
2018-11-05T10:19:26.546Z,16.83
2018-11-05T10:21:56.014Z,9.90
2018-11-05T10:24:24.573Z,7.30
2018-11-05T10:26:53.300Z,8.73
2018-11-05T10:29:21.966Z,10.73
2018-11-05T10:31:50.443Z,8.53
2018-11-05T13:03:51.161Z,9.20
2018-11-05T13:06:26.688Z,11.77
2018-11-05T13:08:55.604Z,13.00
2018-11-05T13:11:24.410Z,7.60
2018-11-05T13:13:53.522Z,9.67
2018-11-05T13:16:29.131Z,14.87
2018-11-05T13:18:57.846Z,9.57
2018-11-05T13:21:27.863Z,12.60
2018-11-05T13:23:56.983Z,14.80
2018-11-05T13:26:25.778Z,10.97
2018-11-05T13:28:54.660Z,11.13
2018-11-05T13:31:23.789Z,12.20
2018-11-05T13:33:55.367Z,11.17
2018-11-05T13:36:28.014Z,10.67
2018-11-05T13:53:02.637Z,13.10
2018-11-05T13:55:33.940Z,13.27
2018-11-05T13:58:05.000Z,12.33
2018-11-05T14:00:33.478Z,11.80
2018-11-05T14:03:02.049Z,13.63
2018-11-05T14:05:30.603Z,15.13
2018-11-05T14:07:59.019Z,17.40
2018-11-05T14:10:27.511Z,18.93
2018-11-05T14:12:56.017Z,15.60
2018-11-05T14:15:24.447Z,15.43
2018-11-05T14:17:52.879Z,14.23
2018-11-05T14:20:21.579Z,13.05
2018-11-05T14:22:50.031Z,15.93
2018-11-05T14:25:19.696Z,13.88
2018-11-05T14:27:49.592Z,10.90
2018-11-05T14:30:17.902Z,11.43
2018-11-05T14:32:47.419Z,14.35
2018-11-05T14:35:15.986Z,11.25
2018-11-05T14:37:44.409Z,12.47
2018-11-05T14:40:14.479Z,10.63
2018-11-05T14:42:43.062Z,10.32
2018-11-05T14:45:13.450Z,10.03
2018-11-05T14:47:43.246Z,10.15
2018-11-05T14:50:13.586Z,11.12
2018-11-05T14:52:42.042Z,12.20
2018-11-05T14:55:13.111Z,12.95
2018-11-05T14:57:41.971Z,10.28
2018-11-05T15:00:13.459Z,11.57
2018-11-05T15:02:42.349Z,10.98
2018-11-05T15:05:12.047Z,10.93
2018-11-05T16:24:06.742Z,13.10
2018-11-05T16:26:35.209Z,13.47
2018-11-05T16:29:03.704Z,14.47
2018-11-05T16:31:38.643Z,12.40
2018-11-05T16:34:07.275Z,14.07
2018-11-05T16:36:36.556Z,11.13
2018-11-05T16:39:18.851Z,13.03
2018-11-05T16:41:58.240Z,13.50
2018-11-05T16:44:27.141Z,11.07
2018-11-05T16:46:55.723Z,12.60
2018-11-05T16:49:24.239Z,12.87
2018-11-05T16:51:53.603Z,18.00
2018-11-05T16:54:23.246Z,13.07
2018-11-05T16:57:00.019Z,12.07
2018-11-05T16:59:29.154Z,11.67
2018-11-05T17:01:58.407Z,13.40
2018-11-05T20:06:18.858Z,4.53
2018-11-05T20:08:48.623Z,5.00
2018-11-05T20:11:17.305Z,5.40
2018-11-05T20:14:03.850Z,4.47
2018-11-05T20:16:45.926Z,4.90
2018-11-05T20:19:36.101Z,6.07
2018-11-05T20:22:14.251Z,5.40
2018-11-05T20:24:47.199Z,5.10
2018-11-05T20:27:18.154Z,4.60
2018-11-05T20:29:46.724Z,4.33
2018-11-05T20:32:15.459Z,5.03
2018-11-05T20:34:43.840Z,6.13
2018-11-05T20:37:39.989Z,4.60
2018-11-05T20:40:22.414Z,5.47
2018-11-05T20:42:59.946Z,3.63
2018-11-05T20:45:31.700Z,4.63
2018-11-05T20:48:05.832Z,3.60
2018-11-05T20:54:08.216Z,4.27
2018-11-05T20:57:22.688Z,3.03
2018-11-05T20:59:51.369Z,3.77
2018-11-05T21:02:20.049Z,9.07
2018-11-05T21:05:52.241Z,3.03
2018-11-05T21:08:20.959Z,2.80
2018-11-05T21:10:49.665Z,4.33
2018-11-05T21:13:18.465Z,3.13
2018-11-05T21:15:47.194Z,3.57
2018-11-05T21:18:15.847Z,4.93
2018-11-05T21:20:44.657Z,2.83
2018-11-05T21:23:13.279Z,2.67
2018-11-05T21:25:42.055Z,3.43
2018-11-05T21:28:10.857Z,3.13
2018-11-05T21:30:39.554Z,2.80
2018-11-05T21:33:08.416Z,3.43
2018-11-05T21:35:39.356Z,3.47
2018-11-05T21:38:08.735Z,1.90
2018-11-05T21:40:38.018Z,2.77
2018-11-05T21:43:07.598Z,2.47
2018-11-05T21:45:36.809Z,2.27
2018-11-05T21:48:11.770Z,2.07
2018-11-05T21:50:40.410Z,2.80
2018-11-05T21:53:34.451Z,3.10
2018-11-05T21:56:03.644Z,1.80
2018-11-05T21:58:32.528Z,2.10
2018-11-05T22:01:05.693Z,1.90
2018-11-05T22:03:34.732Z,2.20
2018-11-05T22:17:27.057Z,3.27
2018-11-05T22:19:55.757Z,1.73
2018-11-05T22:22:24.219Z,1.67
2018-11-05T22:24:52.602Z,2.00
2018-11-05T22:27:21.088Z,1.47
2018-11-05T22:29:49.467Z,1.67
2018-11-05T22:32:17.921Z,1.83
2018-11-05T22:34:46.311Z,2.63
2018-11-05T22:37:14.763Z,2.83
2018-11-05T22:39:43.186Z,2.13
2018-11-05T22:42:11.602Z,2.77
2018-11-05T22:44:39.982Z,2.03
2018-11-05T22:47:08.410Z,2.23
2018-11-05T22:49:37.230Z,2.80
2018-11-05T22:52:06.679Z,2.47
2018-11-05T22:54:35.098Z,2.17
2018-11-05T22:57:03.546Z,2.47
2018-11-05T22:59:31.986Z,1.57
2018-11-05T23:02:00.421Z,1.93
2018-11-05T23:04:42.182Z,1.67
2018-11-05T23:07:10.945Z,2.20
2018-11-05T23:09:40.140Z,1.80
2018-11-05T23:12:08.862Z,1.97
2018-11-05T23:14:39.265Z,1.77
2018-11-05T23:17:08.055Z,2.53
2018-11-05T23:19:41.423Z,2.67
2018-11-05T23:22:18.675Z,1.93
2018-11-05T23:24:47.203Z,2.17
2018-11-05T23:27:15.764Z,2.37
2018-11-05T23:29:44.354Z,1.77
2018-11-05T23:32:12.797Z,1.50
2018-11-05T23:34:41.279Z,1.83
2018-11-05T23:37:09.752Z,2.10
2018-11-05T23:39:38.242Z,2.00
2018-11-05T23:42:06.751Z,1.80
2018-11-05T23:44:35.255Z,2.17
2018-11-05T23:47:03.743Z,2.10
2018-11-05T23:49:32.196Z,2.53
2018-11-05T23:52:00.669Z,1.97
2018-11-05T23:54:29.162Z,1.80
2018-11-05T23:56:57.633Z,2.27
2018-11-05T23:59:26.049Z,3.17
